Time;durP1;ratioP1;P1;durP2;ratioP2;P2;SDS_P1;SDS_P2;PMS_P1;PMS_P2;Temp;Humidity;BMP_temperature;BMP_pressure;BME280_temperature;BME280_humidity;BME280_pressure;Samples;Min_cycle;Max_cycle;Signal;HPM_P1;HPM_P2
2021/01/26 00:00:33;;;;;;;;;;;;;;;29.53;23.16;99791.66;5117442;28;827;-30
2021/01/26 00:02:58;;;;;;;;;;;;;;;29.55;23.21;99803.06;5117296;28;1930;-33
2021/01/26 00:05:24;;;;;;;;;;;;;;;29.81;22.70;99809.34;5117243;28;835;-34
2021/01/26 00:07:50;;;;;;;;;;;;;;;30.26;22.00;99810.13;5120728;27;1099;-34
2021/01/26 00:10:15;;;;;;;;;;;;;;;30.33;21.56;99796.47;5137787;27;747;-35
2021/01/26 00:12:41;;;;;;;;;;;;;;;29.99;22.29;99802.25;5134528;27;957;-33
2021/01/26 00:15:06;;;;;;;;;;;;;;;29.39;23.34;99797.19;5117035;28;739;-35
2021/01/26 00:17:31;;;;;;;;;;;;;;;29.54;22.98;99804.97;5116189;28;823;-34
2021/01/26 00:19:57;;;;;;;;;;;;;;;29.99;22.65;99808.50;5117299;28;846;-32
2021/01/26 00:22:22;;;;;;;;;;;;;;;30.31;21.78;99796.69;5116944;28;1905;-32
2021/01/26 00:24:47;;;;;;;;;;;;;;;30.14;21.76;99800.00;5117267;28;803;-34
2021/01/26 00:27:13;;;;;;;;;;;;;;;29.51;23.22;99802.69;5116949;28;819;-33
2021/01/26 00:29:39;;;;;;;;;;;;;;;29.54;22.95;99787.88;5116750;27;960;-33
2021/01/26 00:32:04;;;;;;;;;;;;;;;29.85;22.71;99782.59;5117083;28;717;-34
2021/01/26 00:34:29;;;;;;;;;;;;;;;29.96;21.04;99771.00;5117207;28;711;-33
2021/01/26 00:36:55;;;;;;;;;;;;;;;29.85;21.17;99775.28;5116932;28;1013;-34
2021/01/26 00:39:20;;;;;;;;;;;;;;;29.26;22.20;99770.22;5117219;28;813;-33
2021/01/26 00:41:45;;;;;;;;;;;;;;;29.10;22.65;99764.28;5116307;28;1905;-34
2021/01/26 00:44:11;;;;;;;;;;;;;;;29.32;22.07;99759.31;5116832;27;945;-37
2021/01/26 00:46:36;;;;;;;;;;;;;;;29.88;21.40;99747.72;5117036;28;819;-32
2021/01/26 00:49:01;;;;;;;;;;;;;;;29.49;21.69;99757.91;5117053;28;759;-32
2021/01/26 00:51:27;;;;;;;;;;;;;;;29.44;21.84;99754.00;5116810;28;759;-32
2021/01/26 00:53:52;;;;;;;;;;;;;;;29.65;21.59;99745.69;5117069;28;822;-35
2021/01/26 00:56:17;;;;;;;;;;;;;;;29.48;21.81;99743.53;5116698;28;760;-34
2021/01/26 00:58:42;;;;;;;;;;;;;;;29.94;21.21;99754.13;5116604;27;1008;-36
2021/01/26 01:01:08;;;;;;;;;;;;;;;30.06;21.06;99746.06;5116743;28;1929;-34
2021/01/26 01:03:33;;;;;;;;;;;;;;;29.53;21.48;99734.75;5117533;28;851;-31
2021/01/26 01:05:58;;;;;;;;;;;;;;;29.28;21.61;99728.28;5120566;27;739;-33
2021/01/26 01:08:24;;;;;;;;;;;;;;;29.41;21.82;99731.94;5128517;27;1181;-33
2021/01/26 01:10:49;;;;;;;;;;;;;;;29.50;21.70;99719.75;5141523;27;862;-33
2021/01/26 01:13:14;;;;;;;;;;;;;;;29.84;21.21;99715.88;5133534;27;996;-32
2021/01/26 01:15:40;;;;;;;;;;;;;;;29.75;21.04;99712.63;5120759;28;791;-33
2021/01/26 01:18:05;;;;;;;;;;;;;;;29.34;21.24;99711.13;5120636;28;775;-35
2021/01/26 01:20:30;;;;;;;;;;;;;;;29.53;21.58;99715.78;5120350;28;1086;-33
2021/01/26 01:22:56;;;;;;;;;;;;;;;29.61;21.38;99706.56;5120539;28;1906;-33
2021/01/26 01:25:21;;;;;;;;;;;;;;;29.85;21.09;99712.94;5120788;28;727;-35
2021/01/26 01:27:46;;;;;;;;;;;;;;;30.24;20.46;99717.28;5119699;27;977;-35
2021/01/26 01:30:12;;;;;;;;;;;;;;;29.34;21.24;99713.03;5120458;28;822;-36
2021/01/26 01:32:38;;;;;;;;;;;;;;;29.32;21.40;99715.13;5120223;28;752;-36
2021/01/26 01:35:03;;;;;;;;;;;;;;;29.52;21.13;99722.22;5122845;27;818;-31
2021/01/26 01:37:29;;;;;;;;;;;;;;;29.74;20.97;99700.97;5141193;27;739;-33
2021/01/26 01:39:54;;;;;;;;;;;;;;;30.06;20.66;99694.53;5140666;27;1032;-34
2021/01/26 01:42:19;;;;;;;;;;;;;;;29.25;21.54;99692.69;5140627;27;1897;-35
2021/01/26 01:44:45;;;;;;;;;;;;;;;29.30;21.36;99685.56;5120322;27;941;-36
2021/01/26 01:47:11;;;;;;;;;;;;;;;29.62;21.16;99673.81;5119930;28;854;-35
2021/01/26 01:49:38;;;;;;;;;;;;;;;29.76;20.85;99670.94;5118571;28;752;-33
2021/01/26 01:52:03;;;;;;;;;;;;;;;30.02;20.61;99664.34;5118499;28;859;-32
2021/01/26 01:54:36;;;;;;;;;;;;;;;29.27;21.41;99672.47;5119776;28;847;-34
2021/01/26 01:57:04;;;;;;;;;;;;;;;29.19;21.50;99651.09;5119804;28;835;-33
2021/01/26 01:59:39;;;;;;;;;;;;;;;29.41;21.32;99637.13;5119418;27;969;-36
2021/01/26 02:02:04;;;;;;;;;;;;;;;29.62;21.17;99635.03;5119567;28;1961;-33
2021/01/26 02:04:29;;;;;;;;;;;;;;;29.98;20.89;99635.22;5118342;28;792;-34
2021/01/26 02:06:55;;;;;;;;;;;;;;;29.29;21.16;99623.50;5118446;27;826;-34
2021/01/26 02:09:28;;;;;;;;;;;;;;;29.05;21.58;99624.16;5140112;27;1177;-37
2021/01/26 02:11:53;;;;;;;;;;;;;;;29.40;21.24;99614.63;5139862;27;819;-34
2021/01/26 02:14:19;;;;;;;;;;;;;;;29.71;21.05;99620.13;5123133;27;1040;-34
2021/01/26 02:16:48;;;;;;;;;;;;;;;29.99;20.57;99612.44;5119420;28;907;-32
2021/01/26 02:19:32;;;;;;;;;;;;;;;29.18;21.29;99615.06;5118379;28;811;-34
2021/01/26 02:22:16;;;;;;;;;;;;;;;29.07;21.46;99615.81;5119087;28;1901;-37
2021/01/26 02:24:58;;;;;;;;;;;;;;;29.38;21.51;99605.06;5119379;28;902;-35
2021/01/26 02:27:39;;;;;;;;;;;;;;;29.76;20.89;99603.97;5117953;28;802;-33
2021/01/26 02:30:24;;;;;;;;;;;;;;;29.25;21.02;99603.31;5117827;28;779;-34
2021/01/26 02:33:08;;;;;;;;;;;;;;;28.90;21.42;99594.69;5118456;28;988;-33
2021/01/26 02:35:39;;;;;;;;;;;;;;;29.33;21.51;99597.59;5119147;28;764;-33
2021/01/26 02:38:05;;;;;;;;;;;;;;;29.61;21.11;99607.13;5119061;28;834;-34
2021/01/26 02:40:34;;;;;;;;;;;;;;;29.73;20.69;99590.91;5118654;28;858;-33
2021/01/26 02:43:09;;;;;;;;;;;;;;;28.97;21.47;99581.13;5122361;27;2217;-33
2021/01/26 02:45:34;;;;;;;;;;;;;;;29.33;21.44;99584.91;5139843;27;818;-34
2021/01/26 02:48:06;;;;;;;;;;;;;;;29.64;21.13;99594.97;5138837;27;839;-36
2021/01/26 02:50:34;;;;;;;;;;;;;;;29.47;21.00;99595.56;5138044;27;806;-32
2021/01/26 02:53:02;;;;;;;;;;;;;;;28.89;21.48;99590.34;5139329;27;823;-36
2021/01/26 02:55:29;;;;;;;;;;;;;;;29.19;21.73;99583.41;5137554;27;842;-36
2021/01/26 02:57:56;;;;;;;;;;;;;;;29.58;20.88;99585.84;5137413;27;942;-34
2021/01/26 03:00:25;;;;;;;;;;;;;;;29.87;20.58;99594.25;5139268;27;826;-36
2021/01/26 03:02:58;;;;;;;;;;;;;;;28.94;21.55;99587.81;5138996;27;1901;-33
2021/01/26 03:05:23;;;;;;;;;;;;;;;29.17;21.51;99589.06;5137927;27;763;-37
2021/01/26 03:07:53;;;;;;;;;;;;;;;29.52;20.96;99593.03;5137986;27;1126;-34
2021/01/26 03:10:19;;;;;;;;;;;;;;;29.76;20.68;99589.63;5137064;27;823;-32
2021/01/26 03:13:02;;;;;;;;;;;;;;;29.09;21.06;99586.63;5135830;27;941;-34
2021/01/26 03:15:41;;;;;;;;;;;;;;;28.72;21.98;99592.78;5117247;28;795;-37
2021/01/26 03:18:11;;;;;;;;;;;;;;;29.42;21.10;99585.44;5116696;28;755;-32
2021/01/26 03:20:37;;;;;;;;;;;;;;;29.76;20.80;99578.78;5117225;28;1103;-35
2021/01/26 03:23:07;;;;;;;;;;;;;;;29.04;21.47;99573.78;5117889;28;1967;-33
2021/01/26 03:25:32;;;;;;;;;;;;;;;28.80;21.87;99573.56;5116431;28;795;-34
2021/01/26 03:27:59;;;;;;;;;;;;;;;29.32;21.24;99575.13;5120152;27;993;-36
2021/01/26 03:30:25;;;;;;;;;;;;;;;29.66;20.92;99574.72;5137404;27;740;-31
2021/01/26 03:32:51;;;;;;;;;;;;;;;29.82;20.36;99570.56;5138041;27;799;-33
2021/01/26 03:35:16;;;;;;;;;;;;;;;28.90;21.48;99566.78;5138963;27;870;-31
2021/01/26 03:37:42;;;;;;;;;;;;;;;28.99;21.72;99568.22;5138556;27;843;-36
2021/01/26 03:40:07;;;;;;;;;;;;;;;29.29;21.44;99570.16;5136976;27;780;-33
2021/01/26 03:42:33;;;;;;;;;;;;;;;29.60;20.94;99570.22;5137127;27;1901;-34
2021/01/26 03:44:58;;;;;;;;;;;;;;;29.66;20.88;99571.19;5116559;28;795;-36
2021/01/26 03:47:25;;;;;;;;;;;;;;;28.57;21.54;99569.63;5121462;27;803;-27
2021/01/26 03:49:50;;;;;;;;;;;;;;;28.96;21.76;99572.16;5137404;27;799;-38
2021/01/26 03:52:34;;;;;;;;;;;;;;;29.34;21.27;99577.59;5138060;27;858;-34
2021/01/26 03:55:02;;;;;;;;;;;;;;;29.58;20.82;99566.88;5137628;27;930;-34
2021/01/26 03:57:33;;;;;;;;;;;;;;;29.84;20.53;99569.50;5136026;27;945;-36
2021/01/26 04:00:05;;;;;;;;;;;;;;;28.67;21.85;99560.16;5117325;28;819;-34
2021/01/26 04:02:31;;;;;;;;;;;;;;;28.67;21.93;99569.13;5117012;28;1902;-33
2021/01/26 04:05:00;;;;;;;;;;;;;;;29.35;21.31;99576.53;5116007;28;892;-36
2021/01/26 04:07:44;;;;;;;;;;;;;;;29.69;20.99;99579.72;5115843;28;882;-34
2021/01/26 04:10:18;;;;;;;;;;;;;;;28.59;22.04;99574.81;5117040;27;913;-32
2021/01/26 04:12:45;;;;;;;;;;;;;;;27.17;22.01;99568.28;5116106;27;996;-34
2021/01/26 04:15:11;;;;;;;;;;;;;;;28.69;21.47;99574.31;5115678;28;842;-34
2021/01/26 04:17:40;;;;;;;;;;;;;;;29.24;20.73;99566.47;5123455;27;808;-35
2021/01/26 04:20:06;;;;;;;;;;;;;;;29.62;20.60;99575.41;5136416;27;861;-32
2021/01/26 04:22:32;;;;;;;;;;;;;;;28.24;21.97;99565.28;5136033;27;1984;-33
2021/01/26 04:24:57;;;;;;;;;;;;;;;27.96;22.48;99570.03;5136078;27;877;-33
2021/01/26 04:27:23;;;;;;;;;;;;;;;29.00;21.24;99577.97;5137982;27;797;-33
2021/01/26 04:29:48;;;;;;;;;;;;;;;29.39;20.92;99575.06;5136043;28;969;-35
2021/01/26 04:32:17;;;;;;;;;;;;;;;29.52;20.59;99584.88;5137494;27;751;-34
2021/01/26 04:34:42;;;;;;;;;;;;;;;29.26;21.25;99583.34;5137962;27;828;-31
2021/01/26 04:37:08;;;;;;;;;;;;;;;28.79;21.75;99587.31;5137559;27;827;-31
2021/01/26 04:39:33;;;;;;;;;;;;;;;28.12;22.53;99578.66;5141732;27;759;-33
2021/01/26 04:41:58;;;;;;;;;;;;;;;28.00;22.86;99573.13;5141952;27;1960;-33
2021/01/26 04:44:42;;;;;;;;;;;;;;;28.88;21.85;99566.22;5124389;27;937;-31
2021/01/26 04:47:12;;;;;;;;;;;;;;;27.27;20.64;99562.44;5120854;28;787;-35
2021/01/26 04:49:49;;;;;;;;;;;;;;;27.29;21.63;99573.88;5121101;28;744;-33
2021/01/26 04:52:34;;;;;;;;;;;;;;;28.12;21.25;99565.16;5119722;28;851;-34
2021/01/26 04:54:59;;;;;;;;;;;;;;;28.09;22.24;99568.28;5134706;27;911;-33
2021/01/26 04:57:28;;;;;;;;;;;;;;;28.21;21.64;99574.63;5141581;27;830;-37
2021/01/26 04:59:58;;;;;;;;;;;;;;;28.72;21.57;99576.56;5120858;27;937;-35
2021/01/26 05:02:41;;;;;;;;;;;;;;;28.89;21.42;99584.94;5120864;28;1905;-34
2021/01/26 05:05:06;;;;;;;;;;;;;;;29.06;21.13;99595.22;5121167;28;911;-37
2021/01/26 05:07:32;;;;;;;;;;;;;;;29.19;21.31;99599.66;5121817;27;1197;-37
2021/01/26 05:10:02;;;;;;;;;;;;;;;29.25;20.82;99595.19;5140966;27;736;-37
2021/01/26 05:12:28;;;;;;;;;;;;;;;29.27;20.99;99598.50;5141147;27;948;-38
2021/01/26 05:14:55;;;;;;;;;;;;;;;29.38;20.81;99602.38;5120617;27;933;-38
2021/01/26 05:17:22;;;;;;;;;;;;;;;28.76;21.41;99604.81;5119228;28;771;-38
2021/01/26 05:19:56;;;;;;;;;;;;;;;28.69;21.90;99607.59;5119020;28;867;-36
2021/01/26 05:22:32;;;;;;;;;;;;;;;29.80;20.68;99607.91;5119092;28;1984;-32
2021/01/26 05:25:02;;;;;;;;;;;;;;;29.96;20.28;99602.91;5132903;27;886;-35
2021/01/26 05:27:27;;;;;;;;;;;;;;;29.37;21.12;99604.25;5139871;27;865;-35
2021/01/26 05:29:53;;;;;;;;;;;;;;;29.14;21.19;99603.03;5126519;27;934;-36
2021/01/26 05:32:18;;;;;;;;;;;;;;;29.28;21.53;99613.72;5140509;27;767;-36
2021/01/26 05:34:43;;;;;;;;;;;;;;;29.41;21.43;99615.47;5140978;27;838;-35
2021/01/26 05:37:10;;;;;;;;;;;;;;;29.27;21.34;99615.59;5141303;27;918;-36
2021/01/26 05:39:47;;;;;;;;;;;;;;;29.18;21.32;99616.94;5138983;27;803;-36
2021/01/26 05:42:13;;;;;;;;;;;;;;;29.72;21.00;99620.94;5140864;27;1905;-36
2021/01/26 05:44:38;;;;;;;;;;;;;;;30.09;20.43;99620.88;5138580;27;946;-36
2021/01/26 05:47:26;;;;;;;;;;;;;;;29.12;21.50;99623.25;5139052;27;731;-34
2021/01/26 05:49:52;;;;;;;;;;;;;;;28.54;22.49;99624.16;5131515;27;1333;-36
2021/01/26 05:52:17;;;;;;;;;;;;;;;29.01;21.75;99620.22;5140467;27;715;-33
2021/01/26 05:55:01;;;;;;;;;;;;;;;29.29;21.62;99618.91;5139243;27;1271;-35
2021/01/26 05:57:28;;;;;;;;;;;;;;;29.75;20.96;99623.19;5140025;27;842;-34
2021/01/26 05:59:57;;;;;;;;;;;;;;;29.57;21.30;99619.44;5119471;27;941;-36
2021/01/26 06:02:22;;;;;;;;;;;;;;;29.20;21.38;99615.69;5118144;28;1963;-36
2021/01/26 06:04:48;;;;;;;;;;;;;;;28.95;21.84;99624.63;5119884;28;811;-35
2021/01/26 06:07:20;;;;;;;;;;;;;;;29.02;21.92;99621.91;5117893;28;830;-35
2021/01/26 06:09:46;;;;;;;;;;;;;;;29.65;21.05;99618.31;5139207;27;1130;-35
2021/01/26 06:12:21;;;;;;;;;;;;;;;29.87;20.47;99615.94;5140328;27;763;-35
2021/01/26 06:14:57;;;;;;;;;;;;;;;29.89;20.21;99616.56;5119203;27;995;-34
2021/01/26 06:17:23;;;;;;;;;;;;;;;29.50;20.50;99616.78;5119454;28;807;-35
2021/01/26 06:20:05;;;;;;;;;;;;;;;28.91;21.09;99611.78;5119566;28;835;-30
2021/01/26 06:22:31;;;;;;;;;;;;;;;28.20;21.64;99615.41;5118470;28;1910;-34
2021/01/26 06:24:57;;;;;;;;;;;;;;;28.43;21.60;99612.16;5119517;28;827;-34
2021/01/26 06:27:25;;;;;;;;;;;;;;;29.43;20.44;99616.03;5118134;28;839;-35
2021/01/26 06:30:05;;;;;;;;;;;;;;;29.20;21.43;99601.28;5118535;27;906;-36
2021/01/26 06:32:40;;;;;;;;;;;;;;;28.62;22.06;99604.13;5119345;28;835;-35
2021/01/26 06:35:08;;;;;;;;;;;;;;;28.67;22.18;99601.59;5119197;28;814;-34
2021/01/26 06:37:33;;;;;;;;;;;;;;;28.92;22.05;99613.44;5119042;28;803;-35
2021/01/26 06:40:01;;;;;;;;;;;;;;;29.30;21.35;99603.47;5119332;28;751;-33
2021/01/26 06:42:26;;;;;;;;;;;;;;;29.70;21.16;99608.44;5118702;27;1945;-33
2021/01/26 06:45:18;;;;;;;;;;;;;;;29.08;21.74;99601.22;5118746;27;953;-28
2021/01/26 06:47:43;;;;;;;;;;;;;;;29.17;22.07;99602.59;5116860;28;1073;-33
2021/01/26 06:50:25;;;;;;;;;;;;;;;29.17;21.93;99604.47;5118937;28;807;-31
2021/01/26 06:52:57;;;;;;;;;;;;;;;29.02;22.08;99611.06;5117419;28;866;-30
2021/01/26 06:55:40;;;;;;;;;;;;;;;29.64;22.17;99617.50;5118940;28;846;-29
2021/01/26 06:58:05;;;;;;;;;;;;;;;29.73;21.04;99609.88;5118134;27;985;-32
2021/01/26 07:00:51;;;;;;;;;;;;;;;28.81;22.49;99604.16;5118006;28;784;-30
2021/01/26 07:03:35;;;;;;;;;;;;;;;29.00;22.74;99617.75;5116730;28;1901;-32
2021/01/26 07:06:00;;;;;;;;;;;;;;;29.22;23.14;99612.75;5118648;28;764;-32
2021/01/26 07:08:45;;;;;;;;;;;;;;;29.73;22.45;99617.19;5126264;27;1087;-33
2021/01/26 07:11:15;;;;;;;;;;;;;;;29.18;21.95;99611.53;5138793;27;1355;-34
2021/01/26 07:13:43;;;;;;;;;;;;;;;28.93;22.47;99618.63;5136789;27;915;-32
2021/01/26 07:16:27;;;;;;;;;;;;;;;29.29;22.82;99609.97;5138568;27;833;-33
2021/01/26 07:19:11;;;;;;;;;;;;;;;29.65;22.61;99616.44;5138906;27;764;-32
2021/01/26 07:21:59;;;;;;;;;;;;;;;29.91;22.07;99627.16;5137829;27;1987;-31
2021/01/26 07:24:43;;;;;;;;;;;;;;;28.70;22.78;99627.34;5129941;27;1620;-35
2021/01/26 07:27:27;;;;;;;;;;;;;;;29.28;22.65;99627.28;5138780;27;867;-31
2021/01/26 07:29:58;;;;;;;;;;;;;;;29.77;21.87;99624.63;5117964;27;921;-32
2021/01/26 07:32:35;;;;;;;;;;;;;;;28.54;23.13;99629.59;5117770;28;807;-34
2021/01/26 07:35:03;;;;;;;;;;;;;;;28.62;23.03;99636.59;5118107;28;747;-31
2021/01/26 07:37:32;;;;;;;;;;;;;;;29.23;22.57;99640.66;5117530;28;847;-33
2021/01/26 07:40:07;;;;;;;;;;;;;;;29.59;22.33;99636.31;5117964;28;807;-34
2021/01/26 07:42:34;;;;;;;;;;;;;;;29.28;22.71;99638.09;5115913;27;1982;-31
2021/01/26 07:44:59;;;;;;;;;;;;;;;28.74;23.29;99634.00;5116148;28;752;-34
2021/01/26 07:47:29;;;;;;;;;;;;;;;29.23;22.95;99632.53;5117828;28;858;-34
2021/01/26 07:50:06;;;;;;;;;;;;;;;29.68;22.51;99632.25;5116630;28;794;-32
2021/01/26 07:52:32;;;;;;;;;;;;;;;28.58;23.63;99632.66;5116970;28;843;-33
2021/01/26 07:55:15;;;;;;;;;;;;;;;28.50;24.14;99627.50;5117520;28;893;-32
2021/01/26 07:57:48;;;;;;;;;;;;;;;29.36;23.14;99632.41;5117702;27;938;-34
2021/01/26 08:00:14;;;;;;;;;;;;;;;29.29;22.37;99628.91;5136453;27;803;-33
2021/01/26 08:02:40;;;;;;;;;;;;;;;28.61;24.20;99626.81;5136872;27;1910;-35
2021/01/26 08:05:14;;;;;;;;;;;;;;;29.06;23.93;99625.81;5136493;27;807;-34
2021/01/26 08:07:39;;;;;;;;;;;;;;;29.01;23.45;99620.22;5137574;27;1114;-33
2021/01/26 08:10:04;;;;;;;;;;;;;;;28.21;24.31;99622.50;5138017;27;775;-31
2021/01/26 08:12:30;;;;;;;;;;;;;;;28.77;24.06;99621.88;5135376;27;1066;-31
2021/01/26 08:14:56;;;;;;;;;;;;;;;29.27;23.33;99607.47;5117144;28;767;-33
2021/01/26 08:17:28;;;;;;;;;;;;;;;29.23;22.61;99611.69;5117495;28;830;-33
2021/01/26 08:20:00;;;;;;;;;;;;;;;28.27;24.52;99616.22;5115959;28;736;-30
2021/01/26 08:22:30;;;;;;;;;;;;;;;29.00;23.75;99625.88;5115898;28;1909;-31
2021/01/26 08:25:00;;;;;;;;;;;;;;;28.86;23.36;99623.28;5116238;28;1250;-32
2021/01/26 08:27:29;;;;;;;;;;;;;;;28.17;24.48;99622.09;5116297;27;1012;-30
2021/01/26 08:30:01;;;;;;;;;;;;;;;28.73;23.83;99630.44;5116826;28;848;-33
2021/01/26 08:32:26;;;;;;;;;;;;;;;29.26;23.12;99624.75;5132701;28;788;-33
2021/01/26 08:34:57;;;;;;;;;;;;;;;28.87;23.24;99630.34;5117208;28;886;-34
2021/01/26 08:37:24;;;;;;;;;;;;;;;28.33;24.40;99631.59;5116872;28;803;-33
2021/01/26 08:39:49;;;;;;;;;;;;;;;29.11;23.49;99630.56;5116903;28;820;-33
2021/01/26 08:42:33;;;;;;;;;;;;;;;28.82;23.34;99630.19;5117421;28;1985;-31
2021/01/26 08:44:59;;;;;;;;;;;;;;;28.25;24.06;99637.22;5117348;28;807;-33
2021/01/26 08:47:39;;;;;;;;;;;;;;;28.88;23.60;99637.41;5117249;28;870;-33
2021/01/26 08:50:15;;;;;;;;;;;;;;;29.41;22.90;99634.41;5116576;28;1125;-33
2021/01/26 08:52:41;;;;;;;;;;;;;;;28.38;23.73;99644.44;5115800;28;768;-35
2021/01/26 08:55:06;;;;;;;;;;;;;;;28.07;24.50;99640.66;5116838;28;764;-32
2021/01/26 08:57:31;;;;;;;;;;;;;;;28.07;24.53;99643.38;5115018;27;941;-36
2021/01/26 09:00:17;;;;;;;;;;;;;;;27.92;24.48;99630.97;5116747;28;846;-33
2021/01/26 09:02:43;;;;;;;;;;;;;;;28.29;24.60;99635.75;5109109;28;1980;-32
2021/01/26 09:05:09;;;;;;;;;;;;;;;28.86;23.46;99634.09;5115344;28;740;-31
2021/01/26 09:07:51;;;;;;;;;;;;;;;29.32;22.98;99633.88;5116216;28;1146;-32
2021/01/26 09:10:27;;;;;;;;;;;;;;;28.87;23.00;99630.34;5135852;28;859;-34
2021/01/26 09:12:58;;;;;;;;;;;;;;;28.33;23.89;99637.00;5131602;27;945;-34
2021/01/26 09:15:24;;;;;;;;;;;;;;;29.01;23.29;99644.59;5114955;28;852;-34
2021/01/26 09:17:49;;;;;;;;;;;;;;;28.80;23.16;99638.53;5115610;28;811;-34
2021/01/26 09:20:14;;;;;;;;;;;;;;;28.10;24.20;99632.13;5116380;28;827;-34
2021/01/26 09:22:40;;;;;;;;;;;;;;;28.89;23.57;99632.81;5116376;28;1992;-32
2021/01/26 09:25:24;;;;;;;;;;;;;;;29.35;22.91;99614.47;5118125;28;760;-35
2021/01/26 09:27:57;;;;;;;;;;;;;;;28.38;22.48;99609.28;5119730;27;941;-31
2021/01/26 09:30:22;;;;;;;;;;;;;;;28.02;23.55;99602.63;5120608;28;740;-35
2021/01/26 09:33:08;;;;;;;;;;;;;;;29.14;22.68;99610.31;5120499;28;774;-35
2021/01/26 09:35:35;;;;;;;;;;;;;;;28.20;23.44;99607.31;5124522;27;1541;-35
2021/01/26 09:38:06;;;;;;;;;;;;;;;27.80;23.97;99598.41;5141168;27;799;-31
2021/01/26 09:40:32;;;;;;;;;;;;;;;29.02;22.82;99599.41;5140896;27;789;-34
2021/01/26 09:43:04;;;;;;;;;;;;;;;29.51;22.17;99595.97;5135548;27;1901;-28
2021/01/26 09:45:29;;;;;;;;;;;;;;;28.11;23.39;99594.06;5120562;28;831;-29
2021/01/26 09:47:55;;;;;;;;;;;;;;;28.16;23.74;99598.00;5120154;28;751;-29
2021/01/26 09:50:20;;;;;;;;;;;;;;;29.28;22.34;99589.34;5117940;28;825;-31
2021/01/26 09:52:45;;;;;;;;;;;;;;;27.96;23.31;99588.13;5118521;28;868;-28
2021/01/26 09:55:12;;;;;;;;;;;;;;;27.94;23.80;99595.63;5134980;27;882;-30
2021/01/26 09:57:37;;;;;;;;;;;;;;;28.91;22.40;99587.41;5137879;27;949;-28
2021/01/26 10:00:07;;;;;;;;;;;;;;;29.39;21.60;99582.34;5135719;27;875;-29
2021/01/26 10:02:32;;;;;;;;;;;;;;;28.03;23.14;99569.19;5138668;27;1954;-37
2021/01/26 10:04:57;;;;;;;;;;;;;;;28.29;22.94;99575.44;5138589;27;865;-28
2021/01/26 10:07:23;;;;;;;;;;;;;;;29.18;21.88;99579.84;5138773;27;961;-37
2021/01/26 10:09:48;;;;;;;;;;;;;;;27.89;23.22;99579.22;5140047;27;1181;-28
2021/01/26 10:12:18;;;;;;;;;;;;;;;27.85;23.61;99571.56;5139994;27;767;-29
2021/01/26 10:15:03;;;;;;;;;;;;;;;28.84;22.24;99580.16;5120353;27;984;-34
2021/01/26 10:17:28;;;;;;;;;;;;;;;29.37;21.58;99571.72;5119259;28;1167;-32
2021/01/26 10:19:55;;;;;;;;;;;;;;;28.02;22.83;99567.50;5117619;28;1205;-28
2021/01/26 10:22:21;;;;;;;;;;;;;;;28.05;23.18;99572.47;5117734;28;1905;-30
2021/01/26 10:24:47;;;;;;;;;;;;;;;29.11;21.90;99578.28;5117705;28;830;-32
2021/01/26 10:27:22;;;;;;;;;;;;;;;28.05;21.66;99573.31;5119120;28;850;-31
2021/01/26 10:29:47;;;;;;;;;;;;;;;27.87;22.77;99572.19;5133132;27;1157;-35
2021/01/26 10:32:13;;;;;;;;;;;;;;;28.77;21.88;99570.47;5139890;27;759;-33
2021/01/26 10:34:43;;;;;;;;;;;;;;;29.28;21.56;99562.28;5139564;27;739;-27
2021/01/26 10:37:11;;;;;;;;;;;;;;;28.35;22.70;99552.94;5139681;27;771;-35
2021/01/26 10:39:36;;;;;;;;;;;;;;;27.93;23.14;99548.84;5139484;27;810;-30
2021/01/26 10:42:04;;;;;;;;;;;;;;;27.99;23.49;99555.25;5139310;27;1898;-35
2021/01/26 10:44:29;;;;;;;;;;;;;;;27.84;23.53;99556.38;5137945;27;954;-29
2021/01/26 10:46:54;;;;;;;;;;;;;;;27.86;23.81;99557.00;5137947;27;792;-35
2021/01/26 10:49:24;;;;;;;;;;;;;;;28.25;23.25;99561.50;5137836;27;798;-34
2021/01/26 10:51:50;;;;;;;;;;;;;;;27.95;23.61;99562.13;5137859;27;502;-31
2021/01/26 10:54:15;;;;;;;;;;;;;;;27.99;23.66;99561.47;5138296;27;751;-35
2021/01/26 10:56:43;;;;;;;;;;;;;;;28.09;23.26;99555.59;5138764;27;1533;-35
2021/01/26 10:59:09;;;;;;;;;;;;;;;27.80;23.88;99557.88;5124049;27;956;-34
2021/01/26 11:01:34;;;;;;;;;;;;;;;27.99;23.57;99561.47;5118607;28;1964;-36
2021/01/26 11:03:59;;;;;;;;;;;;;;;27.97;23.51;99560.06;5116821;28;1289;-28
2021/01/26 11:06:25;;;;;;;;;;;;;;;27.66;24.04;99561.66;5118431;28;747;-35
2021/01/26 11:08:50;;;;;;;;;;;;;;;27.97;23.65;99555.47;5130086;27;1024;-34
2021/01/26 11:11:20;;;;;;;;;;;;;;;27.93;23.47;99553.41;5138429;27;861;-32
2021/01/26 11:13:46;;;;;;;;;;;;;;;27.81;23.95;99547.88;5127253;27;996;-35
2021/01/26 11:16:11;;;;;;;;;;;;;;;28.21;23.60;99553.00;5118538;28;740;-29
2021/01/26 11:18:36;;;;;;;;;;;;;;;27.86;23.86;99558.88;5118102;28;744;-34
2021/01/26 11:21:02;;;;;;;;;;;;;;;27.72;24.02;99553.56;5117960;28;1079;-29
2021/01/26 11:23:27;;;;;;;;;;;;;;;28.20;23.63;99545.13;5117936;28;1914;-29
2021/01/26 11:25:53;;;;;;;;;;;;;;;27.90;23.98;99540.34;5117870;28;764;-32
2021/01/26 11:28:18;;;;;;;;;;;;;;;27.81;24.31;99531.69;5117780;27;957;-30
2021/01/26 11:30:43;;;;;;;;;;;;;;;28.24;23.65;99536.34;5118176;28;835;-28
2021/01/26 11:33:09;;;;;;;;;;;;;;;27.85;24.11;99539.13;5117643;28;950;-32
2021/01/26 11:35:34;;;;;;;;;;;;;;;27.80;24.29;99521.91;5117751;28;506;-33
2021/01/26 11:37:59;;;;;;;;;;;;;;;28.35;23.50;99534.00;5118116;28;771;-31
2021/01/26 11:40:25;;;;;;;;;;;;;;;27.86;24.07;99529.97;5117406;28;782;-35
2021/01/26 11:42:50;;;;;;;;;;;;;;;27.83;23.96;99524.16;5117567;27;1970;-34
2021/01/26 11:45:17;;;;;;;;;;;;;;;28.30;23.61;99521.13;5117582;28;815;-31
2021/01/26 11:47:43;;;;;;;;;;;;;;;27.82;24.07;99527.91;5116807;28;786;-29
2021/01/26 11:50:09;;;;;;;;;;;;;;;27.77;24.31;99519.63;5117822;28;783;-35
2021/01/26 11:52:34;;;;;;;;;;;;;;;28.36;23.39;99527.56;5117668;28;803;-34
2021/01/26 11:54:59;;;;;;;;;;;;;;;27.69;24.17;99529.66;5117392;28;822;-28
2021/01/26 11:57:25;;;;;;;;;;;;;;;27.71;24.14;99515.94;5117701;28;807;-34
2021/01/26 11:59:50;;;;;;;;;;;;;;;28.26;23.82;99503.66;5116852;27;945;-33
2021/01/26 12:02:15;;;;;;;;;;;;;;;27.87;23.91;99509.19;5116967;28;1898;-33
2021/01/26 12:04:40;;;;;;;;;;;;;;;27.78;24.26;99511.31;5117806;28;831;-33
2021/01/26 12:07:06;;;;;;;;;;;;;;;28.30;23.44;99523.00;5117486;28;767;-31
2021/01/26 12:09:31;;;;;;;;;;;;;;;27.77;24.27;99511.53;5134608;27;1138;-34
2021/01/26 12:11:56;;;;;;;;;;;;;;;27.72;24.43;99513.03;5137832;27;917;-31
2021/01/26 12:14:22;;;;;;;;;;;;;;;28.21;23.60;99520.56;5121013;27;1000;-35
2021/01/26 12:16:47;;;;;;;;;;;;;;;27.94;23.74;99514.53;5117443;28;859;-30
2021/01/26 12:19:12;;;;;;;;;;;;;;;27.77;24.19;99522.34;5117090;28;874;-34
2021/01/26 12:21:38;;;;;;;;;;;;;;;28.17;23.66;99523.94;5116947;28;2048;-34
2021/01/26 12:24:03;;;;;;;;;;;;;;;28.60;23.17;99515.06;5117634;28;767;-28
2021/01/26 12:26:28;;;;;;;;;;;;;;;29.10;22.31;99523.31;5117076;28;811;-27
2021/01/26 12:28:54;;;;;;;;;;;;;;;29.30;22.39;99528.47;5116607;27;1068;-34
2021/01/26 12:31:19;;;;;;;;;;;;;;;29.33;22.33;99527.19;5117535;28;743;-33
2021/01/26 12:33:44;;;;;;;;;;;;;;;29.48;21.88;99536.81;5116993;28;736;-34
2021/01/26 12:36:09;;;;;;;;;;;;;;;29.21;21.84;99543.41;5117002;28;798;-34
2021/01/26 12:38:35;;;;;;;;;;;;;;;28.65;22.50;99533.31;5117270;28;858;-35
2021/01/26 12:41:00;;;;;;;;;;;;;;;29.31;22.26;99530.13;5116874;28;850;-30
2021/01/26 12:43:25;;;;;;;;;;;;;;;29.48;21.82;99534.09;5116223;27;1943;-30
2021/01/26 12:45:51;;;;;;;;;;;;;;;29.54;21.86;99541.31;5116958;28;767;-34
2021/01/26 12:48:16;;;;;;;;;;;;;;;29.57;21.72;99541.69;5116840;28;775;-29
2021/01/26 12:50:43;;;;;;;;;;;;;;;29.64;21.73;99554.34;5116859;28;810;-29
2021/01/26 12:53:09;;;;;;;;;;;;;;;29.14;22.14;99545.34;5117113;28;736;-32
2021/01/26 12:55:34;;;;;;;;;;;;;;;28.57;23.07;99545.28;5116931;28;771;-32
2021/01/26 12:57:59;;;;;;;;;;;;;;;29.34;22.03;99554.03;5116410;27;957;-37
2021/01/26 13:00:25;;;;;;;;;;;;;;;29.55;21.80;99559.22;5120782;28;767;-31
2021/01/26 13:02:52;;;;;;;;;;;;;;;29.63;21.69;99558.13;5120590;28;1991;-33
2021/01/26 13:05:17;;;;;;;;;;;;;;;29.72;21.71;99569.44;5120898;28;780;-36
2021/01/26 13:07:43;;;;;;;;;;;;;;;29.80;21.29;99572.66;5122980;27;1126;-30
2021/01/26 13:10:08;;;;;;;;;;;;;;;29.14;22.00;99569.72;5141003;27;846;-31
2021/01/26 13:12:34;;;;;;;;;;;;;;;29.00;22.46;99569.84;5139816;27;949;-33